sensor_id;sensor_type;location;lat;lon;timestamp;temperature;humidity
8896;DHT22;4484;48.928;10.066;2023-11-19T00:00:18;6.20;99.90
8896;DHT22;4484;48.928;10.066;2023-11-19T00:02:45;6.20;99.90
8896;DHT22;4484;48.928;10.066;2023-11-19T00:05:14;6.20;99.90
8896;DHT22;4484;48.928;10.066;2023-11-19T00:07:41;6.20;99.90
8896;DHT22;4484;48.928;10.066;2023-11-19T00:10:10;6.20;99.90
8896;DHT22;4484;48.928;10.066;2023-11-19T00:12:42;6.30;99.90
8896;DHT22;4484;48.928;10.066;2023-11-19T00:15:11;6.30;99.90
8896;DHT22;4484;48.928;10.066;2023-11-19T00:17:42;6.30;99.90
8896;DHT22;4484;48.928;10.066;2023-11-19T00:20:18;6.30;99.90
8896;DHT22;4484;48.928;10.066;2023-11-19T00:22:46;6.30;99.90
8896;DHT22;4484;48.928;10.066;2023-11-19T00:25:17;6.30;99.90
8896;DHT22;4484;48.928;10.066;2023-11-19T00:27:45;6.40;99.90
8896;DHT22;4484;48.928;10.066;2023-11-19T00:30:12;6.40;99.90
8896;DHT22;4484;48.928;10.066;2023-11-19T00:32:41;6.50;99.90
8896;DHT22;4484;48.928;10.066;2023-11-19T00:35:08;6.50;99.90
8896;DHT22;4484;48.928;10.066;2023-11-19T00:37:41;6.50;99.90
8896;DHT22;4484;48.928;10.066;2023-11-19T00:40:10;6.60;99.90
8896;DHT22;4484;48.928;10.066;2023-11-19T00:42:38;6.60;99.90
8896;DHT22;4484;48.928;10.066;2023-11-19T00:45:05;6.70;99.90
8896;DHT22;4484;48.928;10.066;2023-11-19T00:47:36;6.70;99.90
8896;DHT22;4484;48.928;10.066;2023-11-19T00:50:03;6.80;99.90
8896;DHT22;4484;48.928;10.066;2023-11-19T00:52:31;6.80;99.90
8896;DHT22;4484;48.928;10.066;2023-11-19T00:54:58;6.90;99.90
8896;DHT22;4484;48.928;10.066;2023-11-19T00:57:25;6.90;99.90
8896;DHT22;4484;48.928;10.066;2023-11-19T00:59:53;7.00;99.90
8896;DHT22;4484;48.928;10.066;2023-11-19T01:02:20;7.00;99.90
8896;DHT22;4484;48.928;10.066;2023-11-19T01:04:47;7.00;99.90
8896;DHT22;4484;48.928;10.066;2023-11-19T01:07:14;7.10;99.90
8896;DHT22;4484;48.928;10.066;2023-11-19T01:09:42;7.10;99.90
8896;DHT22;4484;48.928;10.066;2023-11-19T01:12:09;7.20;99.90
8896;DHT22;4484;48.928;10.066;2023-11-19T01:14:39;7.20;99.90
8896;DHT22;4484;48.928;10.066;2023-11-19T01:17:06;7.30;99.90
8896;DHT22;4484;48.928;10.066;2023-11-19T01:19:34;7.30;99.90
8896;DHT22;4484;48.928;10.066;2023-11-19T01:22:01;7.30;99.90
8896;DHT22;4484;48.928;10.066;2023-11-19T01:24:28;7.30;99.90
8896;DHT22;4484;48.928;10.066;2023-11-19T01:26:58;7.40;99.90
8896;DHT22;4484;48.928;10.066;2023-11-19T01:29:27;7.40;99.90
8896;DHT22;4484;48.928;10.066;2023-11-19T01:31:54;7.40;99.90
8896;DHT22;4484;48.928;10.066;2023-11-19T01:34:21;7.50;99.90
8896;DHT22;4484;48.928;10.066;2023-11-19T01:36:48;7.50;99.90
8896;DHT22;4484;48.928;10.066;2023-11-19T01:39:16;7.60;99.90
8896;DHT22;4484;48.928;10.066;2023-11-19T01:41:43;7.60;99.90
8896;DHT22;4484;48.928;10.066;2023-11-19T01:44:10;7.60;99.90
8896;DHT22;4484;48.928;10.066;2023-11-19T01:46:44;7.60;99.90
8896;DHT22;4484;48.928;10.066;2023-11-19T01:49:15;7.60;99.90
8896;DHT22;4484;48.928;10.066;2023-11-19T01:51:42;7.60;99.90
8896;DHT22;4484;48.928;10.066;2023-11-19T01:54:10;7.70;99.90
8896;DHT22;4484;48.928;10.066;2023-11-19T01:56:40;7.70;99.90
8896;DHT22;4484;48.928;10.066;2023-11-19T01:59:10;7.70;99.90
8896;DHT22;4484;48.928;10.066;2023-11-19T02:01:38;7.70;99.90
8896;DHT22;4484;48.928;10.066;2023-11-19T02:04:08;7.70;99.90
8896;DHT22;4484;48.928;10.066;2023-11-19T02:06:40;7.70;99.90
8896;DHT22;4484;48.928;10.066;2023-11-19T02:09:09;7.70;99.90
8896;DHT22;4484;48.928;10.066;2023-11-19T02:11:38;7.70;99.90
8896;DHT22;4484;48.928;10.066;2023-11-19T02:14:07;7.80;99.90
8896;DHT22;4484;48.928;10.066;2023-11-19T02:16:34;7.80;99.90
8896;DHT22;4484;48.928;10.066;2023-11-19T02:19:02;7.90;99.90
8896;DHT22;4484;48.928;10.066;2023-11-19T02:21:30;7.90;99.90
8896;DHT22;4484;48.928;10.066;2023-11-19T02:23:57;7.90;99.90
8896;DHT22;4484;48.928;10.066;2023-11-19T02:26:40;7.90;99.90
8896;DHT22;4484;48.928;10.066;2023-11-19T02:29:10;7.90;99.90
8896;DHT22;4484;48.928;10.066;2023-11-19T02:31:38;7.90;99.90
8896;DHT22;4484;48.928;10.066;2023-11-19T02:34:05;8.00;99.90
8896;DHT22;4484;48.928;10.066;2023-11-19T02:36:33;8.00;99.90
8896;DHT22;4484;48.928;10.066;2023-11-19T02:39:00;8.00;99.90
8896;DHT22;4484;48.928;10.066;2023-11-19T02:41:27;8.00;99.90
8896;DHT22;4484;48.928;10.066;2023-11-19T02:43:54;8.10;99.90
8896;DHT22;4484;48.928;10.066;2023-11-19T02:46:21;8.10;99.90
8896;DHT22;4484;48.928;10.066;2023-11-19T02:48:48;8.10;99.90
8896;DHT22;4484;48.928;10.066;2023-11-19T02:51:15;8.10;99.90
8896;DHT22;4484;48.928;10.066;2023-11-19T02:53:42;8.10;99.90
8896;DHT22;4484;48.928;10.066;2023-11-19T02:56:15;8.10;99.90
8896;DHT22;4484;48.928;10.066;2023-11-19T02:58:47;8.20;99.90
8896;DHT22;4484;48.928;10.066;2023-11-19T03:01:22;8.10;99.90
8896;DHT22;4484;48.928;10.066;2023-11-19T03:03:58;8.20;99.90
8896;DHT22;4484;48.928;10.066;2023-11-19T03:06:27;8.10;99.90
8896;DHT22;4484;48.928;10.066;2023-11-19T03:08:54;8.10;99.90
8896;DHT22;4484;48.928;10.066;2023-11-19T03:11:22;8.10;99.90
8896;DHT22;4484;48.928;10.066;2023-11-19T03:13:49;8.10;99.90
8896;DHT22;4484;48.928;10.066;2023-11-19T03:16:16;8.20;99.90
8896;DHT22;4484;48.928;10.066;2023-11-19T03:18:44;8.10;99.90
8896;DHT22;4484;48.928;10.066;2023-11-19T03:21:11;8.10;99.90
8896;DHT22;4484;48.928;10.066;2023-11-19T03:23:39;8.10;99.90
8896;DHT22;4484;48.928;10.066;2023-11-19T03:26:07;8.20;99.90
8896;DHT22;4484;48.928;10.066;2023-11-19T03:28:35;8.20;99.90
8896;DHT22;4484;48.928;10.066;2023-11-19T03:31:06;8.20;99.90
8896;DHT22;4484;48.928;10.066;2023-11-19T03:33:36;8.10;99.90
8896;DHT22;4484;48.928;10.066;2023-11-19T03:36:05;8.20;99.90
8896;DHT22;4484;48.928;10.066;2023-11-19T03:38:32;8.20;99.90
8896;DHT22;4484;48.928;10.066;2023-11-19T03:40:59;8.20;99.90
8896;DHT22;4484;48.928;10.066;2023-11-19T03:43:26;8.20;99.90
8896;DHT22;4484;48.928;10.066;2023-11-19T03:45:54;8.20;99.90
8896;DHT22;4484;48.928;10.066;2023-11-19T03:48:21;8.20;99.90
8896;DHT22;4484;48.928;10.066;2023-11-19T03:50:49;8.20;99.90
8896;DHT22;4484;48.928;10.066;2023-11-19T03:53:16;8.20;99.90
8896;DHT22;4484;48.928;10.066;2023-11-19T03:55:43;8.20;99.90
8896;DHT22;4484;48.928;10.066;2023-11-19T03:58:10;8.30;99.90
8896;DHT22;4484;48.928;10.066;2023-11-19T04:00:37;8.30;99.90
8896;DHT22;4484;48.928;10.066;2023-11-19T04:03:04;8.30;99.90
8896;DHT22;4484;48.928;10.066;2023-11-19T04:05:31;8.30;99.90
8896;DHT22;4484;48.928;10.066;2023-11-19T04:07:58;8.20;99.90
8896;DHT22;4484;48.928;10.066;2023-11-19T04:10:25;8.30;99.90
8896;DHT22;4484;48.928;10.066;2023-11-19T04:12:56;8.30;99.90
8896;DHT22;4484;48.928;10.066;2023-11-19T04:15:23;8.20;99.90
8896;DHT22;4484;48.928;10.066;2023-11-19T04:17:51;8.30;99.90
8896;DHT22;4484;48.928;10.066;2023-11-19T04:20:18;8.20;99.90
8896;DHT22;4484;48.928;10.066;2023-11-19T04:22:46;8.30;99.90
8896;DHT22;4484;48.928;10.066;2023-11-19T04:25:13;8.30;99.90
8896;DHT22;4484;48.928;10.066;2023-11-19T04:27:42;8.30;99.90
8896;DHT22;4484;48.928;10.066;2023-11-19T04:30:09;8.30;99.90
8896;DHT22;4484;48.928;10.066;2023-11-19T04:32:38;8.30;99.90
8896;DHT22;4484;48.928;10.066;2023-11-19T04:35:05;8.30;99.90
8896;DHT22;4484;48.928;10.066;2023-11-19T04:37:33;8.40;99.90
8896;DHT22;4484;48.928;10.066;2023-11-19T04:40:02;8.30;99.90
8896;DHT22;4484;48.928;10.066;2023-11-19T04:42:30;8.30;99.90
8896;DHT22;4484;48.928;10.066;2023-11-19T04:44:58;8.30;99.90
8896;DHT22;4484;48.928;10.066;2023-11-19T04:47:25;8.30;99.90
8896;DHT22;4484;48.928;10.066;2023-11-19T04:49:53;8.40;99.90
8896;DHT22;4484;48.928;10.066;2023-11-19T04:52:20;8.40;99.90
8896;DHT22;4484;48.928;10.066;2023-11-19T04:54:47;8.40;99.90
8896;DHT22;4484;48.928;10.066;2023-11-19T04:57:15;8.40;99.90
8896;DHT22;4484;48.928;10.066;2023-11-19T04:59:42;8.40;99.90
8896;DHT22;4484;48.928;10.066;2023-11-19T05:02:09;8.40;99.90
8896;DHT22;4484;48.928;10.066;2023-11-19T05:04:36;8.40;99.90
8896;DHT22;4484;48.928;10.066;2023-11-19T05:07:06;8.50;99.90
8896;DHT22;4484;48.928;10.066;2023-11-19T05:09:34;8.50;99.90
8896;DHT22;4484;48.928;10.066;2023-11-19T05:12:01;8.50;99.90
8896;DHT22;4484;48.928;10.066;2023-11-19T05:14:28;8.50;99.90
8896;DHT22;4484;48.928;10.066;2023-11-19T05:16:55;8.50;99.90
8896;DHT22;4484;48.928;10.066;2023-11-19T05:19:22;8.60;99.90
8896;DHT22;4484;48.928;10.066;2023-11-19T05:21:49;8.60;99.90
8896;DHT22;4484;48.928;10.066;2023-11-19T05:24:19;8.60;99.90
8896;DHT22;4484;48.928;10.066;2023-11-19T05:26:46;8.60;99.90
8896;DHT22;4484;48.928;10.066;2023-11-19T05:29:13;8.60;99.90
8896;DHT22;4484;48.928;10.066;2023-11-19T05:31:41;8.60;99.90
8896;DHT22;4484;48.928;10.066;2023-11-19T05:34:11;8.60;99.90
8896;DHT22;4484;48.928;10.066;2023-11-19T05:36:38;8.60;99.90
8896;DHT22;4484;48.928;10.066;2023-11-19T05:39:06;8.60;99.90
8896;DHT22;4484;48.928;10.066;2023-11-19T05:41:33;8.70;99.90
8896;DHT22;4484;48.928;10.066;2023-11-19T05:44:00;8.70;99.90
8896;DHT22;4484;48.928;10.066;2023-11-19T05:46:28;8.70;99.90
8896;DHT22;4484;48.928;10.066;2023-11-19T05:48:55;8.70;99.90
8896;DHT22;4484;48.928;10.066;2023-11-19T05:51:22;8.70;99.90
8896;DHT22;4484;48.928;10.066;2023-11-19T05:53:51;8.70;99.90
8896;DHT22;4484;48.928;10.066;2023-11-19T05:56:18;8.70;99.90
8896;DHT22;4484;48.928;10.066;2023-11-19T05:58:48;8.70;99.90
8896;DHT22;4484;48.928;10.066;2023-11-19T06:01:16;8.80;99.90
8896;DHT22;4484;48.928;10.066;2023-11-19T06:03:44;8.70;99.90
8896;DHT22;4484;48.928;10.066;2023-11-19T06:06:16;8.80;99.90
8896;DHT22;4484;48.928;10.066;2023-11-19T06:08:43;8.80;99.90
8896;DHT22;4484;48.928;10.066;2023-11-19T06:11:11;8.90;99.90
8896;DHT22;4484;48.928;10.066;2023-11-19T06:13:45;8.90;99.90
8896;DHT22;4484;48.928;10.066;2023-11-19T06:16:13;8.90;99.90
8896;DHT22;4484;48.928;10.066;2023-11-19T06:18:41;8.90;99.90
8896;DHT22;4484;48.928;10.066;2023-11-19T06:21:08;9.00;99.90
8896;DHT22;4484;48.928;10.066;2023-11-19T06:23:35;9.00;99.90
8896;DHT22;4484;48.928;10.066;2023-11-19T06:26:02;9.10;99.90
8896;DHT22;4484;48.928;10.066;2023-11-19T06:28:29;9.10;99.90
8896;DHT22;4484;48.928;10.066;2023-11-19T06:30:56;9.10;99.90
8896;DHT22;4484;48.928;10.066;2023-11-19T06:33:24;9.20;99.90
8896;DHT22;4484;48.928;10.066;2023-11-19T06:35:52;9.20;99.90
8896;DHT22;4484;48.928;10.066;2023-11-19T06:38:19;9.20;99.90
8896;DHT22;4484;48.928;10.066;2023-11-19T06:40:46;9.20;99.90
8896;DHT22;4484;48.928;10.066;2023-11-19T06:43:13;9.20;99.90
8896;DHT22;4484;48.928;10.066;2023-11-19T06:45:41;9.30;99.90
8896;DHT22;4484;48.928;10.066;2023-11-19T06:48:08;9.30;99.90
8896;DHT22;4484;48.928;10.066;2023-11-19T06:50:35;9.30;99.90
8896;DHT22;4484;48.928;10.066;2023-11-19T06:53:02;9.30;99.90
8896;DHT22;4484;48.928;10.066;2023-11-19T06:55:29;9.30;99.90
8896;DHT22;4484;48.928;10.066;2023-11-19T06:57:59;9.30;99.90
8896;DHT22;4484;48.928;10.066;2023-11-19T07:00:26;9.30;99.90
8896;DHT22;4484;48.928;10.066;2023-11-19T07:02:53;9.30;99.90
8896;DHT22;4484;48.928;10.066;2023-11-19T07:05:20;9.40;99.90
8896;DHT22;4484;48.928;10.066;2023-11-19T07:07:47;9.40;99.90
8896;DHT22;4484;48.928;10.066;2023-11-19T07:10:14;9.40;99.90
8896;DHT22;4484;48.928;10.066;2023-11-19T07:12:42;9.40;99.90
8896;DHT22;4484;48.928;10.066;2023-11-19T07:15:09;9.50;99.90
8896;DHT22;4484;48.928;10.066;2023-11-19T07:17:36;9.50;99.90
8896;DHT22;4484;48.928;10.066;2023-11-19T07:20:04;9.50;99.90
8896;DHT22;4484;48.928;10.066;2023-11-19T07:22:32;9.50;99.90
8896;DHT22;4484;48.928;10.066;2023-11-19T07:24:59;9.50;99.90
8896;DHT22;4484;48.928;10.066;2023-11-19T07:27:26;9.50;99.90
8896;DHT22;4484;48.928;10.066;2023-11-19T07:29:54;9.50;99.90
8896;DHT22;4484;48.928;10.066;2023-11-19T07:32:21;9.60;99.90
8896;DHT22;4484;48.928;10.066;2023-11-19T07:34:48;9.60;99.90
8896;DHT22;4484;48.928;10.066;2023-11-19T07:37:15;9.60;99.90
8896;DHT22;4484;48.928;10.066;2023-11-19T07:39:43;9.70;99.90
8896;DHT22;4484;48.928;10.066;2023-11-19T07:42:10;9.70;99.90
8896;DHT22;4484;48.928;10.066;2023-11-19T07:44:37;9.70;99.90
8896;DHT22;4484;48.928;10.066;2023-11-19T07:47:04;9.70;99.90
8896;DHT22;4484;48.928;10.066;2023-11-19T07:49:31;9.70;99.90
8896;DHT22;4484;48.928;10.066;2023-11-19T07:51:59;9.70;99.90
8896;DHT22;4484;48.928;10.066;2023-11-19T07:54:26;9.70;99.90
8896;DHT22;4484;48.928;10.066;2023-11-19T07:56:53;9.70;99.90
8896;DHT22;4484;48.928;10.066;2023-11-19T07:59:20;9.80;99.90
8896;DHT22;4484;48.928;10.066;2023-11-19T08:01:47;9.90;99.90
8896;DHT22;4484;48.928;10.066;2023-11-19T08:04:15;9.90;99.90
8896;DHT22;4484;48.928;10.066;2023-11-19T08:06:42;9.90;99.90
8896;DHT22;4484;48.928;10.066;2023-11-19T08:09:09;9.90;99.90
8896;DHT22;4484;48.928;10.066;2023-11-19T08:11:41;9.90;99.90
8896;DHT22;4484;48.928;10.066;2023-11-19T08:14:09;10.00;99.90
8896;DHT22;4484;48.928;10.066;2023-11-19T08:16:36;10.00;99.90
8896;DHT22;4484;48.928;10.066;2023-11-19T08:19:04;10.10;99.90
8896;DHT22;4484;48.928;10.066;2023-11-19T08:21:31;10.00;99.90
8896;DHT22;4484;48.928;10.066;2023-11-19T08:23:59;10.10;99.90
8896;DHT22;4484;48.928;10.066;2023-11-19T08:26:26;10.10;99.90
8896;DHT22;4484;48.928;10.066;2023-11-19T08:28:53;10.20;99.90
8896;DHT22;4484;48.928;10.066;2023-11-19T08:31:20;10.20;99.90
8896;DHT22;4484;48.928;10.066;2023-11-19T08:33:47;10.30;99.90
8896;DHT22;4484;48.928;10.066;2023-11-19T08:36:17;10.30;99.90
8896;DHT22;4484;48.928;10.066;2023-11-19T08:38:44;10.30;99.90
8896;DHT22;4484;48.928;10.066;2023-11-19T08:41:11;10.30;99.90
8896;DHT22;4484;48.928;10.066;2023-11-19T08:43:38;10.30;99.90
8896;DHT22;4484;48.928;10.066;2023-11-19T08:46:12;10.30;99.90
8896;DHT22;4484;48.928;10.066;2023-11-19T08:48:39;10.30;99.90
8896;DHT22;4484;48.928;10.066;2023-11-19T08:51:06;10.30;99.90
8896;DHT22;4484;48.928;10.066;2023-11-19T08:53:33;10.30;99.90
8896;DHT22;4484;48.928;10.066;2023-11-19T08:56:01;10.40;99.90
8896;DHT22;4484;48.928;10.066;2023-11-19T08:58:30;10.50;99.90
8896;DHT22;4484;48.928;10.066;2023-11-19T09:00:58;10.50;99.90
8896;DHT22;4484;48.928;10.066;2023-11-19T09:03:25;10.50;99.90
8896;DHT22;4484;48.928;10.066;2023-11-19T09:05:57;10.50;99.90
8896;DHT22;4484;48.928;10.066;2023-11-19T09:08:24;10.50;99.90
8896;DHT22;4484;48.928;10.066;2023-11-19T09:10:51;10.60;99.90
8896;DHT22;4484;48.928;10.066;2023-11-19T09:13:18;10.60;99.90
8896;DHT22;4484;48.928;10.066;2023-11-19T09:15:45;10.70;99.90
8896;DHT22;4484;48.928;10.066;2023-11-19T09:18:12;10.70;99.90
8896;DHT22;4484;48.928;10.066;2023-11-19T09:20:39;10.70;99.90
8896;DHT22;4484;48.928;10.066;2023-11-19T09:23:06;10.80;99.90
8896;DHT22;4484;48.928;10.066;2023-11-19T09:25:34;10.90;99.90
8896;DHT22;4484;48.928;10.066;2023-11-19T09:28:04;10.90;99.90
8896;DHT22;4484;48.928;10.066;2023-11-19T09:30:31;10.90;99.90
8896;DHT22;4484;48.928;10.066;2023-11-19T09:33:01;10.90;99.90
8896;DHT22;4484;48.928;10.066;2023-11-19T09:35:28;10.90;99.90
8896;DHT22;4484;48.928;10.066;2023-11-19T09:37:55;10.90;99.90
8896;DHT22;4484;48.928;10.066;2023-11-19T09:40:22;10.90;99.90
8896;DHT22;4484;48.928;10.066;2023-11-19T09:42:49;10.90;99.90
8896;DHT22;4484;48.928;10.066;2023-11-19T09:45:17;11.00;99.90
8896;DHT22;4484;48.928;10.066;2023-11-19T09:47:47;11.20;99.90
8896;DHT22;4484;48.928;10.066;2023-11-19T09:50:18;11.40;99.90
8896;DHT22;4484;48.928;10.066;2023-11-19T09:52:46;11.80;99.90
8896;DHT22;4484;48.928;10.066;2023-11-19T09:55:14;12.10;99.90
8896;DHT22;4484;48.928;10.066;2023-11-19T09:57:41;12.20;99.90
8896;DHT22;4484;48.928;10.066;2023-11-19T10:00:09;12.30;99.90
8896;DHT22;4484;48.928;10.066;2023-11-19T10:02:39;12.20;99.90
8896;DHT22;4484;48.928;10.066;2023-11-19T10:05:07;12.20;99.90
8896;DHT22;4484;48.928;10.066;2023-11-19T10:07:34;12.10;99.90
8896;DHT22;4484;48.928;10.066;2023-11-19T10:10:04;12.10;99.90
8896;DHT22;4484;48.928;10.066;2023-11-19T10:12:31;12.00;99.90
8896;DHT22;4484;48.928;10.066;2023-11-19T10:14:59;12.00;99.90
8896;DHT22;4484;48.928;10.066;2023-11-19T10:17:32;12.00;99.90
8896;DHT22;4484;48.928;10.066;2023-11-19T10:20:00;12.10;99.90
8896;DHT22;4484;48.928;10.066;2023-11-19T10:22:27;12.10;99.90
8896;DHT22;4484;48.928;10.066;2023-11-19T10:24:54;12.10;99.90
8896;DHT22;4484;48.928;10.066;2023-11-19T10:27:24;12.10;99.90
8896;DHT22;4484;48.928;10.066;2023-11-19T10:29:52;12.00;99.90
8896;DHT22;4484;48.928;10.066;2023-11-19T10:32:19;11.90;99.90
8896;DHT22;4484;48.928;10.066;2023-11-19T10:35:04;11.80;99.90
8896;DHT22;4484;48.928;10.066;2023-11-19T10:37:33;11.80;99.90
8896;DHT22;4484;48.928;10.066;2023-11-19T10:40:02;11.80;99.90
8896;DHT22;4484;48.928;10.066;2023-11-19T10:42:32;11.70;99.90
8896;DHT22;4484;48.928;10.066;2023-11-19T10:44:58;11.70;99.90
8896;DHT22;4484;48.928;10.066;2023-11-19T10:47:26;11.80;99.90
8896;DHT22;4484;48.928;10.066;2023-11-19T10:49:55;12.20;99.90
8896;DHT22;4484;48.928;10.066;2023-11-19T10:52:23;12.50;99.90
8896;DHT22;4484;48.928;10.066;2023-11-19T10:54:51;12.90;99.90
8896;DHT22;4484;48.928;10.066;2023-11-19T10:57:21;13.30;99.90
8896;DHT22;4484;48.928;10.066;2023-11-19T10:59:50;13.20;99.90
8896;DHT22;4484;48.928;10.066;2023-11-19T11:02:22;13.10;99.90
8896;DHT22;4484;48.928;10.066;2023-11-19T11:04:51;13.30;99.90
8896;DHT22;4484;48.928;10.066;2023-11-19T11:07:21;13.80;99.90
8896;DHT22;4484;48.928;10.066;2023-11-19T11:10:02;13.90;99.90
8896;DHT22;4484;48.928;10.066;2023-11-19T11:12:36;13.90;99.90
8896;DHT22;4484;48.928;10.066;2023-11-19T11:15:04;13.90;99.90
8896;DHT22;4484;48.928;10.066;2023-11-19T11:17:33;13.80;99.90
8896;DHT22;4484;48.928;10.066;2023-11-19T11:20:01;13.50;99.90
8896;DHT22;4484;48.928;10.066;2023-11-19T11:22:38;13.30;99.90
8896;DHT22;4484;48.928;10.066;2023-11-19T11:25:23;13.20;99.90
8896;DHT22;4484;48.928;10.066;2023-11-19T11:35:59;12.80;99.90
8896;DHT22;4484;48.928;10.066;2023-11-19T11:38:30;12.70;99.90
8896;DHT22;4484;48.928;10.066;2023-11-19T11:41:18;12.70;99.90
8896;DHT22;4484;48.928;10.066;2023-11-19T11:43:51;13.20;99.90
8896;DHT22;4484;48.928;10.066;2023-11-19T11:49:05;14.30;99.90
8896;DHT22;4484;48.928;10.066;2023-11-19T11:57:08;15.60;99.90
8896;DHT22;4484;48.928;10.066;2023-11-19T12:02:10;15.70;99.90
8896;DHT22;4484;48.928;10.066;2023-11-19T12:04:39;15.70;99.90
8896;DHT22;4484;48.928;10.066;2023-11-19T12:07:14;16.20;99.90
8896;DHT22;4484;48.928;10.066;2023-11-19T12:09:41;16.50;99.90
8896;DHT22;4484;48.928;10.066;2023-11-19T12:15:04;16.80;99.90
8896;DHT22;4484;48.928;10.066;2023-11-19T12:17:40;17.10;99.90
8896;DHT22;4484;48.928;10.066;2023-11-19T12:20:10;17.20;99.90
8896;DHT22;4484;48.928;10.066;2023-11-19T12:22:39;17.20;99.90
8896;DHT22;4484;48.928;10.066;2023-11-19T12:25:07;17.10;99.90
8896;DHT22;4484;48.928;10.066;2023-11-19T12:27:56;17.30;99.90
8896;DHT22;4484;48.928;10.066;2023-11-19T12:30:24;17.40;99.90
8896;DHT22;4484;48.928;10.066;2023-11-19T12:32:53;17.30;99.90
8896;DHT22;4484;48.928;10.066;2023-11-19T12:35:21;17.00;99.90
8896;DHT22;4484;48.928;10.066;2023-11-19T12:37:50;16.90;99.90
8896;DHT22;4484;48.928;10.066;2023-11-19T12:40:21;17.00;99.90
8896;DHT22;4484;48.928;10.066;2023-11-19T12:42:49;17.10;99.90
8896;DHT22;4484;48.928;10.066;2023-11-19T12:45:17;17.10;99.90
8896;DHT22;4484;48.928;10.066;2023-11-19T12:47:44;17.00;99.90
8896;DHT22;4484;48.928;10.066;2023-11-19T12:50:11;16.90;99.90
8896;DHT22;4484;48.928;10.066;2023-11-19T12:52:38;16.80;99.90
8896;DHT22;4484;48.928;10.066;2023-11-19T12:55:32;16.70;99.90
8896;DHT22;4484;48.928;10.066;2023-11-19T12:57:59;16.50;99.90
8896;DHT22;4484;48.928;10.066;2023-11-19T13:00:27;16.40;99.90
8896;DHT22;4484;48.928;10.066;2023-11-19T13:02:56;16.50;99.90
8896;DHT22;4484;48.928;10.066;2023-11-19T13:10:27;16.80;99.90
8896;DHT22;4484;48.928;10.066;2023-11-19T13:13:05;16.60;99.90
8896;DHT22;4484;48.928;10.066;2023-11-19T13:15:33;16.20;99.90
8896;DHT22;4484;48.928;10.066;2023-11-19T13:18:01;15.80;99.90
8896;DHT22;4484;48.928;10.066;2023-11-19T13:20:29;15.50;99.90
8896;DHT22;4484;48.928;10.066;2023-11-19T13:23:04;15.20;99.90
8896;DHT22;4484;48.928;10.066;2023-11-19T13:25:31;14.90;99.90
8896;DHT22;4484;48.928;10.066;2023-11-19T13:28:00;14.70;99.90
8896;DHT22;4484;48.928;10.066;2023-11-19T13:30:27;14.50;99.90
8896;DHT22;4484;48.928;10.066;2023-11-19T13:32:54;14.60;99.90
8896;DHT22;4484;48.928;10.066;2023-11-19T13:35:22;14.60;99.90
8896;DHT22;4484;48.928;10.066;2023-11-19T13:37:49;14.50;99.90
8896;DHT22;4484;48.928;10.066;2023-11-19T13:40:18;14.50;99.90
8896;DHT22;4484;48.928;10.066;2023-11-19T13:42:46;14.40;99.90
8896;DHT22;4484;48.928;10.066;2023-11-19T13:45:14;14.30;99.90
8896;DHT22;4484;48.928;10.066;2023-11-19T13:47:43;14.10;99.90
8896;DHT22;4484;48.928;10.066;2023-11-19T13:50:15;13.90;99.90
8896;DHT22;4484;48.928;10.066;2023-11-19T13:52:44;13.80;99.90
8896;DHT22;4484;48.928;10.066;2023-11-19T13:55:13;13.60;99.90
8896;DHT22;4484;48.928;10.066;2023-11-19T13:57:41;13.60;99.90
8896;DHT22;4484;48.928;10.066;2023-11-19T14:00:10;13.40;99.90
8896;DHT22;4484;48.928;10.066;2023-11-19T14:02:40;13.20;99.90
8896;DHT22;4484;48.928;10.066;2023-11-19T14:05:11;13.20;99.90
8896;DHT22;4484;48.928;10.066;2023-11-19T14:07:39;13.10;99.90
8896;DHT22;4484;48.928;10.066;2023-11-19T14:10:07;13.00;99.90
8896;DHT22;4484;48.928;10.066;2023-11-19T14:12:38;13.00;99.90
8896;DHT22;4484;48.928;10.066;2023-11-19T14:15:06;12.90;99.90
8896;DHT22;4484;48.928;10.066;2023-11-19T14:17:33;13.00;99.90
8896;DHT22;4484;48.928;10.066;2023-11-19T14:20:02;13.10;99.90
8896;DHT22;4484;48.928;10.066;2023-11-19T14:22:30;13.10;99.90
8896;DHT22;4484;48.928;10.066;2023-11-19T14:24:57;13.10;99.90
8896;DHT22;4484;48.928;10.066;2023-11-19T14:27:24;13.00;99.90
8896;DHT22;4484;48.928;10.066;2023-11-19T14:29:51;12.90;99.90
8896;DHT22;4484;48.928;10.066;2023-11-19T14:32:18;12.80;99.90
8896;DHT22;4484;48.928;10.066;2023-11-19T14:34:45;12.70;99.90
8896;DHT22;4484;48.928;10.066;2023-11-19T14:37:12;12.50;99.90
8896;DHT22;4484;48.928;10.066;2023-11-19T14:39:39;12.40;99.90
8896;DHT22;4484;48.928;10.066;2023-11-19T14:42:06;12.40;99.90
8896;DHT22;4484;48.928;10.066;2023-11-19T14:44:33;12.40;99.90
8896;DHT22;4484;48.928;10.066;2023-11-19T14:47:00;12.40;99.90
8896;DHT22;4484;48.928;10.066;2023-11-19T14:49:29;12.50;99.90
8896;DHT22;4484;48.928;10.066;2023-11-19T14:51:56;12.40;99.90
8896;DHT22;4484;48.928;10.066;2023-11-19T14:54:42;12.40;99.90
8896;DHT22;4484;48.928;10.066;2023-11-19T14:57:09;12.40;99.90
8896;DHT22;4484;48.928;10.066;2023-11-19T14:59:37;12.30;99.90
8896;DHT22;4484;48.928;10.066;2023-11-19T15:02:04;12.20;99.90
8896;DHT22;4484;48.928;10.066;2023-11-19T15:04:32;12.10;99.90
8896;DHT22;4484;48.928;10.066;2023-11-19T15:06:59;12.10;99.90
8896;DHT22;4484;48.928;10.066;2023-11-19T15:09:27;12.00;99.90
8896;DHT22;4484;48.928;10.066;2023-11-19T15:11:54;11.90;99.90
8896;DHT22;4484;48.928;10.066;2023-11-19T15:14:21;11.80;99.90
8896;DHT22;4484;48.928;10.066;2023-11-19T15:16:48;11.70;99.90
8896;DHT22;4484;48.928;10.066;2023-11-19T15:19:18;11.70;99.90
8896;DHT22;4484;48.928;10.066;2023-11-19T15:21:47;11.60;99.90
8896;DHT22;4484;48.928;10.066;2023-11-19T15:24:14;11.40;99.90
8896;DHT22;4484;48.928;10.066;2023-11-19T15:26:41;11.40;99.90
8896;DHT22;4484;48.928;10.066;2023-11-19T15:29:08;11.30;99.90
8896;DHT22;4484;48.928;10.066;2023-11-19T15:31:36;11.30;99.90
8896;DHT22;4484;48.928;10.066;2023-11-19T15:34:03;11.20;99.90
8896;DHT22;4484;48.928;10.066;2023-11-19T15:36:30;11.10;99.90
8896;DHT22;4484;48.928;10.066;2023-11-19T15:38:59;11.00;99.90
8896;DHT22;4484;48.928;10.066;2023-11-19T15:41:26;10.80;99.90
8896;DHT22;4484;48.928;10.066;2023-11-19T15:43:54;10.80;99.90
8896;DHT22;4484;48.928;10.066;2023-11-19T15:46:21;10.60;99.90
8896;DHT22;4484;48.928;10.066;2023-11-19T15:48:48;10.60;99.90
8896;DHT22;4484;48.928;10.066;2023-11-19T15:51:15;10.60;99.90
8896;DHT22;4484;48.928;10.066;2023-11-19T15:53:43;10.50;99.90
8896;DHT22;4484;48.928;10.066;2023-11-19T15:56:10;10.40;99.90
8896;DHT22;4484;48.928;10.066;2023-11-19T15:58:37;10.40;99.90
8896;DHT22;4484;48.928;10.066;2023-11-19T16:01:07;10.40;99.90
8896;DHT22;4484;48.928;10.066;2023-11-19T16:03:35;10.40;99.90
8896;DHT22;4484;48.928;10.066;2023-11-19T16:06:06;10.30;99.90
8896;DHT22;4484;48.928;10.066;2023-11-19T16:08:37;10.30;99.90
8896;DHT22;4484;48.928;10.066;2023-11-19T16:11:05;10.20;99.90
8896;DHT22;4484;48.928;10.066;2023-11-19T16:13:34;10.20;99.90
8896;DHT22;4484;48.928;10.066;2023-11-19T16:16:01;10.10;99.90
8896;DHT22;4484;48.928;10.066;2023-11-19T16:18:29;10.20;99.90
8896;DHT22;4484;48.928;10.066;2023-11-19T16:20:56;10.20;99.90
8896;DHT22;4484;48.928;10.066;2023-11-19T16:23:24;10.10;99.90
8896;DHT22;4484;48.928;10.066;2023-11-19T16:25:51;10.10;99.90
8896;DHT22;4484;48.928;10.066;2023-11-19T16:28:17;10.10;99.90